Time;durP1;ratioP1;P1;durP2;ratioP2;P2;SDS_P1;SDS_P2;PMS_P1;PMS_P2;Temp;Humidity;BMP_temperature;BMP_pressure;BME280_temperature;BME280_humidity;BME280_pressure;Samples;Min_cycle;Max_cycle;Signal;HPM_P1;HPM_P2
2023/04/11 00:01:09;;;;;;;5.95;4.32;;;;;;;18.10;42.96;100345.25;5092395;28;20519;-70
2023/04/11 00:03:38;;;;;;;6.95;4.40;;;;;;;18.07;42.86;100340.13;5092935;28;20105;-70
2023/04/11 00:06:08;;;;;;;6.45;4.40;;;;;;;18.06;42.94;100346.53;5092387;28;20044;-70
2023/04/11 00:08:36;;;;;;;6.53;4.72;;;;;;;18.05;43.04;100344.81;5092271;28;20140;-70
2023/04/11 00:11:04;;;;;;;5.93;4.20;;;;;;;18.02;43.01;100339.66;5092592;28;20066;-70
2023/04/11 00:13:33;;;;;;;6.20;4.35;;;;;;;18.01;42.90;100336.13;5092450;28;20047;-69
2023/04/11 00:16:02;;;;;;;6.35;4.60;;;;;;;17.99;42.98;100329.16;5092312;28;20102;-70
2023/04/11 00:18:30;;;;;;;7.15;4.32;;;;;;;17.95;42.85;100327.72;5092229;28;20044;-70
2023/04/11 00:20:59;;;;;;;6.72;4.45;;;;;;;17.96;42.97;100334.84;5092136;28;20051;-70
2023/04/11 00:23:27;;;;;;;6.43;4.45;;;;;;;17.92;43.02;100336.09;5092269;28;20055;-69
2023/04/11 00:25:55;;;;;;;5.90;4.03;;;;;;;17.90;42.90;100320.03;5092100;28;20574;-70
2023/04/11 00:28:23;;;;;;;6.03;4.60;;;;;;;17.85;42.75;100319.59;5091989;28;20044;-69
2023/04/11 00:30:51;;;;;;;7.13;4.90;;;;;;;17.84;42.89;100320.59;5091957;28;20044;-70
2023/04/11 00:33:21;;;;;;;6.47;4.70;;;;;;;17.86;42.84;100328.56;5092016;28;20089;-70
2023/04/11 00:35:49;;;;;;;7.72;4.68;;;;;;;17.82;42.80;100327.09;5091461;28;20083;-70
2023/04/11 00:38:17;;;;;;;6.18;4.60;;;;;;;17.81;43.03;100320.00;5091853;28;20048;-69
2023/04/11 00:40:45;;;;;;;6.80;4.43;;;;;;;17.78;43.04;100317.59;5092133;28;20040;-69
2023/04/11 00:43:13;;;;;;;6.80;4.80;;;;;;;17.78;42.93;100314.91;5092101;28;20054;-70
2023/04/11 00:45:42;;;;;;;6.78;4.70;;;;;;;17.74;43.04;100307.06;5092110;28;20044;-69
2023/04/11 00:48:10;;;;;;;7.40;5.03;;;;;;;17.74;42.87;100301.66;5091761;28;20416;-69
2023/04/11 00:50:42;;;;;;;6.75;4.47;;;;;;;17.72;43.10;100305.50;5092078;28;20052;-69
2023/04/11 00:53:12;;;;;;;6.32;4.82;;;;;;;17.69;42.89;100298.53;5092381;28;20048;-70
2023/04/11 00:55:40;;;;;;;6.80;4.72;;;;;;;17.68;42.96;100296.81;5092051;28;20076;-70
2023/04/11 00:58:09;;;;;;;6.18;4.57;;;;;;;17.66;43.09;100296.09;5092135;28;20131;-69
2023/04/11 01:00:37;;;;;;;7.32;5.00;;;;;;;17.64;43.05;100303.44;5091879;28;20433;-69
2023/04/11 01:03:05;;;;;;;7.57;4.95;;;;;;;17.61;43.08;100298.31;5091895;28;20040;-70
2023/04/11 01:05:35;;;;;;;6.78;4.72;;;;;;;17.61;42.88;100302.88;5092014;28;20090;-70
2023/04/11 01:08:05;;;;;;;6.50;4.68;;;;;;;17.58;42.98;100301.31;5091710;28;20056;-69
2023/04/11 01:10:33;;;;;;;6.68;4.72;;;;;;;17.56;43.04;100300.56;5091843;28;20130;-69
2023/04/11 01:13:02;;;;;;;7.63;4.90;;;;;;;17.56;42.97;100294.31;5091569;28;20063;-70
2023/04/11 01:15:31;;;;;;;6.85;5.10;;;;;;;17.53;43.30;100287.38;5091737;28;20142;-69
2023/04/11 01:18:00;;;;;;;7.00;4.78;;;;;;;17.53;43.12;100284.66;5091718;28;20101;-70
2023/04/11 01:20:30;;;;;;;6.28;4.40;;;;;;;17.49;43.14;100285.09;5091610;28;20055;-69
2023/04/11 01:23:01;;;;;;;7.72;5.05;;;;;;;17.49;43.15;100285.09;5091717;28;20051;-70
2023/04/11 01:25:31;;;;;;;7.38;5.07;;;;;;;17.45;43.02;100282.63;5091583;28;20135;-70
2023/04/11 01:27:59;;;;;;;7.20;4.68;;;;;;;17.43;43.18;100275.69;5091471;28;20079;-70
2023/04/11 01:30:27;;;;;;;6.30;4.60;;;;;;;17.42;43.11;100273.97;5091372;28;20056;-70
2023/04/11 01:32:55;;;;;;;7.45;4.93;;;;;;;17.39;43.17;100271.56;5091439;28;20428;-69
2023/04/11 01:35:24;;;;;;;6.55;4.60;;;;;;;17.38;43.18;100264.47;5091511;28;20044;-69
2023/04/11 01:37:52;;;;;;;6.55;4.57;;;;;;;17.38;43.25;100264.47;5091454;28;20067;-70
2023/04/11 01:40:22;;;;;;;6.88;4.93;;;;;;;17.35;43.47;100264.72;5091273;28;20076;-70
2023/04/11 01:42:52;;;;;;;7.20;5.18;;;;;;;17.33;43.09;100266.69;5091305;28;20530;-70
2023/04/11 01:45:22;;;;;;;6.57;4.80;;;;;;;17.31;43.16;100264.16;5091270;28;20560;-69
2023/04/11 01:47:51;;;;;;;7.10;5.22;;;;;;;17.30;43.03;100262.44;5092600;28;20140;-70
2023/04/11 01:50:20;;;;;;;6.78;4.75;;;;;;;17.29;43.06;100249.09;5095197;28;20055;-70
2023/04/11 01:52:49;;;;;;;6.28;4.95;;;;;;;17.26;43.21;100252.03;5095094;28;20048;-69
2023/04/11 01:55:20;;;;;;;6.80;4.75;;;;;;;17.25;43.15;100253.03;5094952;28;20044;-69
2023/04/11 01:57:49;;;;;;;8.05;4.80;;;;;;;17.23;43.17;100250.47;5095377;28;20101;-70
2023/04/11 02:00:19;;;;;;;7.25;4.90;;;;;;;17.21;43.21;100255.16;5095636;28;20102;-72
2023/04/11 02:02:47;;;;;;;6.88;4.70;;;;;;;17.20;43.20;100255.31;5095102;28;20493;-70
2023/04/11 02:05:16;;;;;;;7.50;5.30;;;;;;;17.18;43.01;100255.44;5094816;28;20044;-70
2023/04/11 02:07:44;;;;;;;7.15;5.40;;;;;;;17.17;43.19;100251.00;5094721;28;20050;-69
2023/04/11 02:10:14;;;;;;;7.30;4.97;;;;;;;17.14;43.17;100249.44;5094849;28;20097;-69
2023/04/11 02:12:42;;;;;;;7.03;5.20;;;;;;;17.12;43.00;100242.50;5094881;28;20051;-69
2023/04/11 02:15:10;;;;;;;7.18;4.85;;;;;;;17.11;43.21;100252.41;5094668;28;20131;-70
2023/04/11 02:17:43;;;;;;;6.65;4.70;;;;;;;17.10;43.26;100252.56;5094443;28;20489;-70
2023/04/11 02:20:13;;;;;;;7.35;5.35;;;;;;;17.09;43.16;100254.41;5094418;28;20047;-69
2023/04/11 02:22:41;;;;;;;6.68;5.05;;;;;;;17.07;43.12;100248.25;5094655;28;20433;-69
2023/04/11 02:25:09;;;;;;;6.35;5.20;;;;;;;17.06;43.27;100237.63;5094402;28;20500;-69
2023/04/11 02:27:38;;;;;;;6.88;5.18;;;;;;;17.05;43.12;100230.53;5094400;28;20055;-69
2023/04/11 02:30:07;;;;;;;7.30;5.15;;;;;;;17.03;43.17;100222.59;5094186;28;20048;-69
2023/04/11 02:32:37;;;;;;;6.57;4.68;;;;;;;17.02;43.14;100225.41;5094319;28;20040;-69
2023/04/11 02:35:07;;;;;;;7.00;5.20;;;;;;;16.98;43.31;100219.44;5094208;28;20505;-68
2023/04/11 02:37:36;;;;;;;7.72;4.97;;;;;;;16.98;43.14;100223.97;5094312;28;20048;-68
2023/04/11 02:40:05;;;;;;;6.93;5.22;;;;;;;16.96;43.23;100226.78;5094275;28;20044;-68
2023/04/11 02:42:33;;;;;;;7.68;5.43;;;;;;;16.95;43.14;100230.47;5094242;28;20070;-68
2023/04/11 02:45:02;;;;;;;8.38;5.60;;;;;;;16.93;43.18;100227.06;5094000;28;20050;-68
2023/04/11 02:47:30;;;;;;;6.75;5.13;;;;;;;16.91;43.18;100223.66;5093943;28;20577;-69
2023/04/11 02:49:59;;;;;;;6.90;4.78;;;;;;;16.89;43.09;100225.66;5094119;28;20052;-69
2023/04/11 02:52:28;;;;;;;6.80;5.13;;;;;;;16.89;43.31;100225.66;5094070;28;20101;-70
2023/04/11 02:54:56;;;;;;;7.68;5.35;;;;;;;16.87;43.25;100222.22;5093801;28;20420;-68
2023/04/11 02:57:25;;;;;;;7.53;5.22;;;;;;;16.85;43.21;100218.81;5093697;28;20493;-69
2023/04/11 02:59:53;;;;;;;7.57;5.25;;;;;;;16.85;43.15;100229.56;5092904;28;20055;-68
2023/04/11 03:02:22;;;;;;;8.15;5.28;;;;;;;16.84;43.21;100227.88;5093641;28;20047;-69
2023/04/11 03:04:50;;;;;;;7.32;5.45;;;;;;;16.80;43.17;100226.44;5093655;28;20559;-69
2023/04/11 03:07:18;;;;;;;7.07;4.80;;;;;;;16.80;43.26;100223.75;5093557;28;20051;-69
2023/04/11 03:09:49;;;;;;;6.97;4.88;;;;;;;16.80;43.23;100230.00;5093600;28;20044;-69
2023/04/11 03:12:18;;;;;;;7.95;5.57;;;;;;;16.78;43.26;100225.69;5093396;28;20424;-68
2023/04/11 03:14:47;;;;;;;7.18;5.25;;;;;;;16.77;43.24;100226.69;5093677;28;20071;-68
2023/04/11 03:17:15;;;;;;;7.82;5.55;;;;;;;16.75;43.27;100223.28;5093419;28;20052;-69
2023/04/11 03:19:43;;;;;;;7.95;5.50;;;;;;;16.74;43.28;100226.97;5093463;28;20044;-68
2023/04/11 03:22:11;;;;;;;7.93;5.50;;;;;;;16.73;43.32;100217.19;5093454;28;20047;-69
2023/04/11 03:24:40;;;;;;;7.20;5.40;;;;;;;16.71;43.01;100213.78;5093235;28;20043;-68
2023/04/11 03:27:09;;;;;;;7.28;5.10;;;;;;;16.70;43.27;100210.22;5093188;28;20131;-69
2023/04/11 03:29:38;;;;;;;6.97;5.25;;;;;;;16.69;43.36;100207.63;5092974;28;20544;-68
2023/04/11 03:32:06;;;;;;;7.93;5.40;;;;;;;16.67;43.37;100214.97;5093328;28;20047;-69
2023/04/11 03:34:34;;;;;;;8.15;5.72;;;;;;;16.67;43.18;100223.06;5093129;28;20079;-68
2023/04/11 03:37:02;;;;;;;7.03;5.38;;;;;;;16.65;43.31;100207.03;5092968;28;20556;-68
2023/04/11 03:39:31;;;;;;;7.82;5.72;;;;;;;16.63;43.35;100222.47;5092896;28;20048;-69
2023/04/11 03:42:00;;;;;;;7.78;5.75;;;;;;;16.61;43.36;100221.75;5093135;28;20048;-70
2023/04/11 03:44:30;;;;;;;8.57;5.70;;;;;;;16.59;43.23;100211.09;5093028;28;20043;-69
2023/04/11 03:46:58;;;;;;;8.40;6.15;;;;;;;16.60;43.31;100214.66;5092777;28;20419;-70
2023/04/11 03:49:26;;;;;;;7.53;5.47;;;;;;;16.58;43.35;100213.91;5092694;28;20505;-70
2023/04/11 03:51:54;;;;;;;8.30;5.90;;;;;;;16.56;43.28;100213.19;5092699;28;20105;-69
2023/04/11 03:54:22;;;;;;;7.78;6.15;;;;;;;16.55;43.34;100215.03;5092577;28;20077;-68
2023/04/11 03:56:51;;;;;;;8.23;5.82;;;;;;;16.52;43.24;100212.63;5092761;28;20051;-68
2023/04/11 03:59:19;;;;;;;8.07;5.10;;;;;;;16.53;43.28;100214.31;5092659;28;20090;-69
2023/04/11 04:01:49;;;;;;;7.07;5.43;;;;;;;16.51;43.32;100221.69;5092586;28;20048;-70
2023/04/11 04:04:17;;;;;;;7.53;5.43;;;;;;;16.50;43.25;100219.97;5092489;28;20059;-69
2023/04/11 04:06:46;;;;;;;7.72;5.53;;;;;;;16.49;43.34;100223.63;5092298;28;20036;-69
2023/04/11 04:09:14;;;;;;;7.57;5.47;;;;;;;16.48;43.30;100226.47;5092550;28;20083;-69
2023/04/11 04:11:42;;;;;;;8.85;5.85;;;;;;;16.47;43.34;100225.59;5092535;28;20480;-69
2023/04/11 04:14:10;;;;;;;7.85;5.45;;;;;;;16.47;43.43;100211.28;5092427;28;20040;-69
2023/04/11 04:16:39;;;;;;;8.73;6.18;;;;;;;16.45;43.36;100210.56;5092294;28;20048;-69
2023/04/11 04:19:08;;;;;;;8.13;5.97;;;;;;;16.42;43.29;100209.00;5092180;28;20055;-69
2023/04/11 04:21:36;;;;;;;7.35;5.30;;;;;;;16.42;43.33;100211.69;5092152;28;20086;-69
2023/04/11 04:24:05;;;;;;;8.23;5.75;;;;;;;16.42;43.39;100213.53;5092285;28;20044;-69
2023/04/11 04:26:36;;;;;;;8.57;6.15;;;;;;;16.41;43.41;100217.22;5092057;28;20048;-69
2023/04/11 04:29:05;;;;;;;7.30;5.30;;;;;;;16.40;43.36;100213.66;5091973;28;20062;-69
2023/04/11 04:31:33;;;;;;;7.60;5.60;;;;;;;16.39;43.38;100211.09;5091879;28;20546;-69
2023/04/11 04:34:07;;;;;;;7.25;5.35;;;;;;;16.35;43.35;100210.50;5091865;28;20127;-69
2023/04/11 04:36:45;;;;;;;8.48;5.60;;;;;;;16.36;43.16;100212.22;5092165;28;20051;-69
2023/04/11 04:39:16;;;;;;;7.28;5.00;;;;;;;16.35;43.29;100218.59;5091956;28;20110;-69
2023/04/11 04:41:47;;;;;;;7.45;5.35;;;;;;;16.36;43.37;100224.81;5091816;28;20055;-69
2023/04/11 04:44:16;;;;;;;8.55;5.80;;;;;;;16.33;43.32;100234.00;5091729;28;20181;-69
2023/04/11 04:46:44;;;;;;;8.68;6.00;;;;;;;16.33;43.22;100227.78;5091973;28;20048;-69
2023/04/11 04:49:12;;;;;;;8.25;6.38;;;;;;;16.34;43.35;100224.94;5092060;28;20090;-68
2023/04/11 04:51:42;;;;;;;8.20;5.75;;;;;;;16.31;43.33;100226.06;5091704;28;20044;-69
2023/04/11 04:54:10;;;;;;;7.78;5.60;;;;;;;16.31;43.30;100209.06;5091901;28;20044;-69
2023/04/11 04:56:38;;;;;;;7.60;5.50;;;;;;;16.27;43.40;100208.47;5091868;28;20408;-68
2023/04/11 04:59:07;;;;;;;7.60;5.40;;;;;;;16.28;43.37;100203.94;5091849;28;20061;-69
2023/04/11 05:01:38;;;;;;;7.28;5.53;;;;;;;16.28;43.35;100203.94;5091943;28;20127;-69
2023/04/11 05:04:07;;;;;;;8.20;5.55;;;;;;;16.28;43.34;100209.31;5091655;28;20382;-69
2023/04/11 05:06:35;;;;;;;7.47;5.75;;;;;;;16.28;43.51;100209.31;5091601;28;20065;-69
2023/04/11 05:09:05;;;;;;;8.45;5.97;;;;;;;16.27;43.38;100207.59;5091551;28;20044;-69
2023/04/11 05:11:33;;;;;;;8.60;5.72;;;;;;;16.26;43.45;100205.91;5091323;28;20477;-68
2023/04/11 05:14:02;;;;;;;8.10;5.70;;;;;;;16.26;43.50;100205.91;5091774;28;20135;-69
2023/04/11 05:16:30;;;;;;;8.15;5.78;;;;;;;16.25;43.44;100198.81;5091532;28;20405;-69
2023/04/11 05:18:58;;;;;;;7.47;5.45;;;;;;;16.25;43.42;100198.81;5091481;28;20051;-69
2023/04/11 05:21:27;;;;;;;8.68;5.90;;;;;;;16.24;43.31;100200.66;5091407;28;20481;-68
2023/04/11 05:23:55;;;;;;;8.13;5.88;;;;;;;16.23;43.35;100196.25;5094444;28;20040;-69
2023/04/11 05:26:26;;;;;;;8.02;5.72;;;;;;;16.23;43.42;100190.03;5095245;28;20493;-69
2023/04/11 05:28:54;;;;;;;8.07;5.90;;;;;;;16.23;43.50;100192.72;5095228;28;20067;-68
2023/04/11 05:31:24;;;;;;;7.95;5.75;;;;;;;16.24;43.39;100189.03;5095458;28;20044;-68
2023/04/11 05:33:52;;;;;;;8.70;5.90;;;;;;;16.22;43.48;100183.78;5095481;28;20058;-69
2023/04/11 05:36:24;;;;;;;7.53;5.70;;;;;;;16.22;43.50;100188.31;5095278;28;20771;-69
2023/04/11 05:38:53;;;;;;;9.05;5.60;;;;;;;16.24;43.38;100186.34;5094944;28;20048;-69
2023/04/11 05:41:21;;;;;;;8.43;5.55;;;;;;;16.22;43.42;100189.16;5095169;28;20139;-71
2023/04/11 05:43:51;;;;;;;8.43;5.55;;;;;;;16.20;43.52;100188.41;5094944;28;20143;-68
2023/04/11 05:46:19;;;;;;;9.93;6.53;;;;;;;16.21;43.50;100187.47;5094783;28;20048;-69
2023/04/11 05:48:47;;;;;;;7.97;5.60;;;;;;;16.21;43.45;100186.59;5094730;28;20047;-68
2023/04/11 05:51:15;;;;;;;7.80;5.93;;;;;;;16.21;43.51;100182.09;5095311;28;20071;-68
2023/04/11 05:53:43;;;;;;;7.38;5.55;;;;;;;16.20;43.52;100172.28;5095155;28;20057;-69
2023/04/11 05:56:12;;;;;;;9.13;6.13;;;;;;;16.19;43.71;100172.41;5095032;28;20048;-68
2023/04/11 05:58:42;;;;;;;8.35;5.93;;;;;;;16.20;43.58;100174.13;5094791;28;20052;-68
2023/04/11 06:01:17;;;;;;;7.68;5.55;;;;;;;16.18;43.55;100163.47;5094924;28;20075;-68
2023/04/11 06:03:45;;;;;;;8.68;6.03;;;;;;;16.18;43.48;100165.31;5094763;28;20097;-67
2023/04/11 06:06:14;;;;;;;9.50;5.88;;;;;;;16.19;43.57;100167.03;5094564;28;20467;-67
2023/04/11 06:08:43;;;;;;;8.85;5.57;;;;;;;16.19;43.63;100161.66;5094835;28;20126;-68
2023/04/11 06:11:11;;;;;;;8.45;5.93;;;;;;;16.19;43.57;100158.97;5094700;28;20048;-69
2023/04/11 06:13:39;;;;;;;8.10;5.72;;;;;;;16.18;43.76;100154.56;5094597;28;20048;-69
2023/04/11 06:16:08;;;;;;;8.95;6.15;;;;;;;16.19;43.78;100150.88;5094644;28;20056;-69
2023/04/11 06:18:37;;;;;;;8.77;6.10;;;;;;;16.17;43.77;100148.31;5094304;28;20044;-69
2023/04/11 06:21:06;;;;;;;7.68;5.90;;;;;;;16.19;43.86;100148.19;5094658;28;20048;-70
2023/04/11 06:23:37;;;;;;;8.70;6.18;;;;;;;16.18;43.86;100150.03;5094417;28;20048;-69
2023/04/11 06:26:05;;;;;;;7.93;5.90;;;;;;;16.19;43.70;100151.72;5094423;28;20097;-68
2023/04/11 06:28:33;;;;;;;9.25;6.32;;;;;;;16.19;43.85;100151.72;5093865;28;20136;-69
2023/04/11 06:31:02;;;;;;;8.18;5.60;;;;;;;16.20;43.90;100152.59;5094157;28;20139;-67
2023/04/11 06:33:30;;;;;;;8.27;6.00;;;;;;;16.19;43.73;100140.13;5093770;28;20055;-67
2023/04/11 06:35:59;;;;;;;8.88;6.10;;;;;;;16.19;44.00;100130.22;5097237;28;20048;-68
2023/04/11 06:38:27;;;;;;;9.02;5.88;;;;;;;16.20;43.84;100144.50;5094114;28;20459;-69
2023/04/11 06:40:56;;;;;;;8.45;6.60;;;;;;;16.19;43.69;100140.97;5094078;28;20086;-65
2023/04/11 06:43:24;;;;;;;10.55;6.55;;;;;;;16.22;43.75;100142.56;5094096;28;20079;-69
2023/04/11 06:45:52;;;;;;;9.57;6.60;;;;;;;16.21;43.99;100143.53;5093726;28;20050;-67
2023/04/11 06:48:21;;;;;;;8.30;5.72;;;;;;;16.22;43.85;100142.56;5093915;28;20055;-69
2023/04/11 06:50:49;;;;;;;9.85;6.30;;;;;;;16.21;43.81;100140.84;5096155;28;20051;-69
2023/04/11 06:53:18;;;;;;;9.32;6.03;;;;;;;16.22;43.97;100142.56;5103523;28;20090;-69
2023/04/11 06:55:48;;;;;;;8.40;6.05;;;;;;;16.20;43.83;100131.06;5104934;28;20131;-68
2023/04/11 06:58:16;;;;;;;9.00;6.20;;;;;;;16.23;43.95;100136.19;5101458;28;20442;-68
2023/04/11 07:00:44;;;;;;;8.43;6.03;;;;;;;16.23;43.88;100126.28;5097727;28;20092;-68
2023/04/11 07:03:13;;;;;;;8.20;6.00;;;;;;;16.23;43.99;100142.44;5101108;28;20082;-69
2023/04/11 07:05:41;;;;;;;9.57;6.40;;;;;;;16.24;43.95;100132.53;5093688;28;20126;-68
2023/04/11 07:08:09;;;;;;;9.90;6.20;;;;;;;16.24;44.10;100129.81;5093434;28;20052;-69
2023/04/11 07:10:39;;;;;;;9.90;6.22;;;;;;;16.23;43.98;100122.75;5093395;28;20047;-70
2023/04/11 07:13:07;;;;;;;8.25;5.72;;;;;;;16.26;44.03;100127.84;5093378;28;20048;-67
2023/04/11 07:15:35;;;;;;;9.63;5.93;;;;;;;16.25;44.09;100121.63;5093502;28;20472;-68
2023/04/11 07:18:03;;;;;;;9.02;6.35;;;;;;;16.23;44.06;100110.13;5093327;28;20047;-69
2023/04/11 07:20:32;;;;;;;8.40;6.25;;;;;;;16.27;44.28;100106.19;5093102;28;20052;-69
2023/04/11 07:23:01;;;;;;;8.18;6.05;;;;;;;16.27;44.03;100099.94;5093065;28;20044;-70
2023/04/11 07:25:32;;;;;;;8.13;6.13;;;;;;;16.29;44.16;100114.13;5092530;28;20117;-70
2023/04/11 07:28:06;;;;;;;8.07;5.85;;;;;;;16.30;44.23;100113.13;5092438;28;20505;-69
2023/04/11 07:30:35;;;;;;;8.30;6.40;;;;;;;16.31;44.05;100112.19;5091873;28;20074;-70
2023/04/11 07:33:04;;;;;;;8.93;6.10;;;;;;;16.31;44.07;100112.19;5092774;28;20052;-70
2023/04/11 07:35:33;;;;;;;8.00;5.60;;;;;;;16.32;44.12;100105.81;5091703;28;20128;-70
2023/04/11 07:38:01;;;;;;;7.90;6.40;;;;;;;16.34;44.27;100111.91;5092710;28;20040;-70
2023/04/11 07:40:30;;;;;;;9.60;6.68;;;;;;;16.34;44.07;100103.81;5092906;28;20117;-70
2023/04/11 07:43:00;;;;;;;8.13;5.82;;;;;;;16.35;44.34;100108.22;5092878;28;20059;-71
2023/04/11 07:45:31;;;;;;;8.35;6.18;;;;;;;16.35;44.26;100105.53;5092482;28;20048;-70
2023/04/11 07:48:00;;;;;;;8.38;6.35;;;;;;;16.37;44.32;100110.78;5092695;28;20051;-70
2023/04/11 07:50:28;;;;;;;8.57;6.28;;;;;;;16.38;44.23;100110.63;5092552;28;20428;-70
2023/04/11 07:52:56;;;;;;;7.47;5.72;;;;;;;16.38;44.36;100102.56;5092789;28;20131;-70
2023/04/11 07:55:24;;;;;;;8.38;6.03;;;;;;;16.39;44.40;100106.09;5092719;28;20052;-70
2023/04/11 07:57:52;;;;;;;8.30;6.18;;;;;;;16.38;44.36;100097.19;5092423;28;20048;-70
2023/04/11 08:00:22;;;;;;;8.65;5.82;;;;;;;16.40;44.47;100094.34;5092287;28;20052;-70
2023/04/11 08:02:52;;;;;;;7.55;5.70;;;;;;;16.41;44.39;100094.25;5092354;28;20040;-70
2023/04/11 08:05:20;;;;;;;8.50;6.03;;;;;;;16.40;44.18;100088.97;5092245;28;20099;-69
2023/04/11 08:07:48;;;;;;;8.27;5.90;;;;;;;16.42;44.39;100082.47;5092264;28;20044;-70
2023/04/11 08:10:17;;;;;;;9.40;6.10;;;;;;;16.43;44.54;100078.81;5092352;28;20044;-70
2023/04/11 08:12:45;;;;;;;7.30;5.45;;;;;;;16.42;44.54;100082.47;5092167;28;20519;-70
2023/04/11 08:15:13;;;;;;;8.32;5.32;;;;;;;16.41;44.52;100080.78;5092268;28;20459;-70
2023/04/11 08:17:42;;;;;;;9.00;5.93;;;;;;;16.45;44.52;100081.34;5091971;28;20501;-70
2023/04/11 08:20:12;;;;;;;7.80;5.35;;;;;;;16.45;44.51;100068.75;5092325;28;20055;-70
2023/04/11 08:22:43;;;;;;;7.88;5.63;;;;;;;16.47;44.53;100068.59;5092288;28;20702;-70
2023/04/11 08:25:13;;;;;;;9.32;6.00;;;;;;;16.47;44.61;100064.06;5092185;28;20048;-70
2023/04/11 08:27:41;;;;;;;7.75;5.32;;;;;;;16.48;44.62;100065.78;5092115;28;20105;-69
2023/04/11 08:30:10;;;;;;;8.27;5.80;;;;;;;16.49;44.63;100059.41;5091644;28;20090;-70
2023/04/11 08:32:39;;;;;;;8.27;5.68;;;;;;;16.49;44.62;100056.72;5091999;28;20083;-70
2023/04/11 08:35:09;;;;;;;8.07;5.85;;;;;;;16.50;44.56;100057.56;5092115;28;20048;-70
2023/04/11 08:37:38;;;;;;;9.20;6.28;;;;;;;16.50;44.62;100046.78;5091690;28;20044;-70
2023/04/11 08:40:08;;;;;;;9.63;5.90;;;;;;;16.52;44.63;100040.31;5091790;28;20058;-69
2023/04/11 08:42:36;;;;;;;7.15;5.28;;;;;;;16.54;44.69;100027.56;5092072;28;20044;-70
2023/04/11 08:45:07;;;;;;;8.55;6.00;;;;;;;16.53;44.51;100020.47;5091601;28;20051;-70
2023/04/11 08:47:36;;;;;;;8.93;5.55;;;;;;;16.57;44.76;100012.97;5091968;28;20074;-70
2023/04/11 08:50:06;;;;;;;7.63;5.50;;;;;;;16.59;44.63;100013.66;5091935;28;20071;-69
2023/04/11 08:52:36;;;;;;;7.30;5.28;;;;;;;16.60;44.65;100007.31;5091698;28;20066;-70
2023/04/11 08:55:07;;;;;;;8.05;5.60;;;;;;;16.61;44.64;100009.03;5091662;28;20075;-69
2023/04/11 08:57:36;;;;;;;8.05;5.55;;;;;;;16.60;44.72;99997.41;5091025;28;20052;-71
2023/04/11 09:00:13;;;;;;;7.63;5.43;;;;;;;16.63;44.68;99996.28;5091537;28;20052;-70
2023/04/11 09:02:56;;;;;;;7.35;5.32;;;;;;;16.64;44.66;99995.28;5091656;28;20044;-70
2023/04/11 09:05:26;;;;;;;7.57;5.70;;;;;;;16.65;44.70;99986.22;5092077;28;20539;-69
2023/04/11 09:07:54;;;;;;;8.05;5.53;;;;;;;16.66;44.82;99990.59;5091494;28;20074;-70
2023/04/11 09:10:26;;;;;;;7.07;5.05;;;;;;;16.67;44.68;99996.84;5091697;28;20052;-70
2023/04/11 09:12:55;;;;;;;7.38;5.07;;;;;;;16.68;44.60;99996.72;5091461;28;20052;-70
2023/04/11 09:15:26;;;;;;;8.48;5.40;;;;;;;16.71;44.72;100001.00;5091445;28;20093;-70
2023/04/11 09:17:55;;;;;;;7.93;5.22;;;;;;;16.73;44.64;100001.72;5091466;28;20050;-70
2023/04/11 09:20:29;;;;;;;8.50;5.72;;;;;;;16.71;44.73;99987.53;5091289;28;20047;-70
2023/04/11 09:22:58;;;;;;;7.35;6.05;;;;;;;16.72;44.63;99983.84;5091567;28;20123;-70
2023/04/11 09:25:28;;;;;;;7.70;5.53;;;;;;;16.75;44.79;99980.88;5091549;28;20126;-70
2023/04/11 09:28:08;;;;;;;8.05;6.05;;;;;;;16.75;44.74;99965.56;5091365;28;20040;-70
2023/04/11 09:30:36;;;;;;;8.05;5.72;;;;;;;16.76;44.70;99961.88;5090907;28;20509;-70
2023/04/11 09:33:20;;;;;;;7.85;5.78;;;;;;;16.79;44.76;99960.75;5091465;28;20071;-70
2023/04/11 09:35:49;;;;;;;8.63;5.68;;;;;;;16.81;44.74;99953.41;5091695;28;20044;-70
2023/04/11 09:38:27;;;;;;;8.55;6.05;;;;;;;16.82;44.88;99949.72;5091300;28;20127;-69
2023/04/11 09:40:58;;;;;;;8.55;5.97;;;;;;;16.83;44.78;99948.72;5091179;28;20074;-69
2023/04/11 09:43:26;;;;;;;7.53;5.75;;;;;;;16.82;44.88;99949.72;5091105;28;20486;-69
2023/04/11 09:46:11;;;;;;;9.32;6.15;;;;;;;16.83;44.88;99949.56;5091411;28;20044;-69
2023/04/11 09:48:39;;;;;;;8.48;5.97;;;;;;;16.85;44.86;99957.50;5089205;28;20455;-69
2023/04/11 09:51:27;;;;;;;9.73;6.30;;;;;;;16.88;45.02;99951.84;5091534;28;20052;-68
2023/04/11 09:54:04;;;;;;;7.78;5.47;;;;;;;16.88;45.05;99943.75;5092823;28;20071;-69
2023/04/11 09:56:35;;;;;;;10.35;6.10;;;;;;;16.90;45.10;99947.19;5092821;28;20040;-68
2023/04/11 09:59:04;;;;;;;9.18;5.55;;;;;;;16.91;45.05;99937.25;5091920;28;20081;-69
2023/04/11 10:01:32;;;;;;;7.88;5.80;;;;;;;16.93;45.27;99938.81;5091057;28;20058;-69
2023/04/11 10:04:01;;;;;;;7.88;5.78;;;;;;;16.96;45.14;99934.97;5091055;28;20051;-69
2023/04/11 10:06:32;;;;;;;7.90;5.50;;;;;;;16.98;45.15;99938.38;5091048;28;20409;-69
2023/04/11 10:09:09;;;;;;;7.57;5.40;;;;;;;16.98;45.22;99925.75;5092804;28;20084;-69
2023/04/11 10:11:46;;;;;;;8.60;5.63;;;;;;;17.01;45.13;99930.03;5094809;28;20048;-69
2023/04/11 10:14:44;;;;;;;7.43;5.68;;;;;;;17.04;45.19;99919.81;5094509;28;20485;-69
2023/04/11 10:17:17;;;;;;;8.60;6.05;;;;;;;17.07;45.40;99918.66;5088565;28;20048;-69
2023/04/11 10:19:55;;;;;;;7.95;5.68;;;;;;;17.09;45.28;99922.09;5094552;28;20142;-69
2023/04/11 10:22:58;;;;;;;8.75;5.68;;;;;;;17.12;45.41;99917.25;5094205;28;20059;-69
2023/04/11 10:25:27;;;;;;;9.57;5.95;;;;;;;17.14;45.29;99907.19;5094235;28;20544;-69
2023/04/11 10:27:59;;;;;;;8.63;5.57;;;;;;;17.18;45.37;99905.06;5094431;28;20040;-69
2023/04/11 10:31:02;;;;;;;7.63;5.45;;;;;;;17.23;45.49;99891.16;5094086;28;20054;-69
2023/04/11 10:33:31;;;;;;;7.65;5.70;;;;;;;17.27;45.47;99879.06;5088965;28;20157;-68
2023/04/11 10:36:02;;;;;;;7.75;5.38;;;;;;;17.31;45.52;99888.59;5094119;28;20067;-68
2023/04/11 10:38:50;;;;;;;7.70;5.07;;;;;;;17.35;45.51;99884.59;5094174;28;20097;-68
2023/04/11 10:41:30;;;;;;;8.00;5.38;;;;;;;17.39;45.45;99875.25;5094036;28;20070;-68
2023/04/11 10:44:19;;;;;;;8.13;5.63;;;;;;;17.41;45.54;99873.25;5094012;28;20480;-68
2023/04/11 10:47:16;;;;;;;8.13;5.63;;;;;;;17.46;45.34;99865.56;5094078;28;20079;-69
2023/04/11 10:49:45;;;;;;;7.53;5.57;;;;;;;17.50;45.55;99858.06;5094059;28;20489;-69
2023/04/11 10:52:20;;;;;;;8.40;5.70;;;;;;;17.54;45.58;99857.59;5093769;28;20485;-68
2023/04/11 10:54:50;;;;;;;7.65;5.30;;;;;;;17.59;45.47;99855.31;5094007;28;20048;-69
2023/04/11 10:57:19;;;;;;;7.80;5.65;;;;;;;17.61;45.48;99856.03;5093634;28;20051;-69
2023/04/11 10:59:59;;;;;;;7.28;5.55;;;;;;;17.66;45.38;99848.34;5093716;28;20094;-69
2023/04/11 11:02:39;;;;;;;8.80;5.70;;;;;;;17.72;45.55;99852.31;5093523;28;20086;-69
2023/04/11 11:05:19;;;;;;;6.97;5.40;;;;;;;17.78;45.50;99842.81;5093565;28;20055;-69
2023/04/11 11:07:52;;;;;;;8.82;5.38;;;;;;;17.82;45.36;99841.50;5093640;28;20044;-69
2023/04/11 11:10:40;;;;;;;7.07;5.28;;;;;;;17.87;45.36;99833.81;5093667;28;20417;-70
2023/04/11 11:13:09;;;;;;;9.18;6.18;;;;;;;17.93;45.20;99830.50;5093425;28;20044;-69
2023/04/11 11:15:46;;;;;;;7.10;5.50;;;;;;;17.97;45.29;99826.53;5093481;28;20435;-69
2023/04/11 11:18:16;;;;;;;7.53;5.80;;;;;;;18.03;45.32;99817.81;5093680;28;20447;-69
2023/04/11 11:20:44;;;;;;;8.18;5.32;;;;;;;18.07;45.18;99810.28;5092821;28;20052;-70
2023/04/11 11:23:12;;;;;;;7.45;5.30;;;;;;;18.10;45.32;99807.28;5093157;28;20134;-69
2023/04/11 11:25:41;;;;;;;7.03;5.22;;;;;;;18.15;45.13;99805.84;5093101;28;20050;-69
2023/04/11 11:28:09;;;;;;;7.63;5.55;;;;;;;18.20;45.34;99803.50;5093423;28;20048;-69
2023/04/11 11:30:50;;;;;;;7.38;5.22;;;;;;;18.25;45.13;99793.13;5093060;28;20507;-69
2023/04/11 11:33:25;;;;;;;7.25;5.20;;;;;;;18.30;45.00;99793.50;5093459;28;20047;-69
2023/04/11 11:35:56;;;;;;;7.75;5.40;;;;;;;18.36;45.23;99788.50;5092968;28;20410;-69
2023/04/11 11:38:27;;;;;;;8.45;5.72;;;;;;;18.39;45.32;99785.47;5092802;28;20453;-69
2023/04/11 11:40:56;;;;;;;7.60;5.25;;;;;;;18.44;45.16;99785.88;5093095;28;20047;-69